sensor_id;sensor_type;location;lat;lon;timestamp;P1;durP1;ratioP1;P2;durP2;ratioP2
80211;SDS011;70434;37.956;23.722;2023-07-08T00:00:12;12.85;;;7.35;;
80211;SDS011;70434;37.956;23.722;2023-07-08T00:02:41;10.55;;;7.20;;
80211;SDS011;70434;37.956;23.722;2023-07-08T00:05:10;10.25;;;7.45;;
80211;SDS011;70434;37.956;23.722;2023-07-08T00:07:38;9.77;;;7.43;;
80211;SDS011;70434;37.956;23.722;2023-07-08T00:10:12;11.15;;;7.40;;
80211;SDS011;70434;37.956;23.722;2023-07-08T00:12:43;9.20;;;7.15;;
80211;SDS011;70434;37.956;23.722;2023-07-08T00:15:13;9.38;;;7.40;;
80211;SDS011;70434;37.956;23.722;2023-07-08T00:17:38;11.70;;;8.00;;
80211;SDS011;70434;37.956;23.722;2023-07-08T00:20:10;9.40;;;7.05;;
80211;SDS011;70434;37.956;23.722;2023-07-08T00:22:44;11.90;;;7.95;;
80211;SDS011;70434;37.956;23.722;2023-07-08T00:25:15;11.38;;;8.65;;
80211;SDS011;70434;37.956;23.722;2023-07-08T00:27:41;11.73;;;8.52;;
80211;SDS011;70434;37.956;23.722;2023-07-08T00:32:44;16.23;;;9.25;;
80211;SDS011;70434;37.956;23.722;2023-07-08T00:35:09;12.30;;;8.40;;
80211;SDS011;70434;37.956;23.722;2023-07-08T00:37:35;13.38;;;8.82;;
80211;SDS011;70434;37.956;23.722;2023-07-08T00:40:01;15.20;;;8.93;;
80211;SDS011;70434;37.956;23.722;2023-07-08T00:42:36;12.20;;;9.75;;
80211;SDS011;70434;37.956;23.722;2023-07-08T00:45:09;15.15;;;9.90;;
80211;SDS011;70434;37.956;23.722;2023-07-08T00:48:05;15.98;;;11.00;;
80211;SDS011;70434;37.956;23.722;2023-07-08T00:50:49;16.55;;;10.63;;
80211;SDS011;70434;37.956;23.722;2023-07-08T00:53:25;13.45;;;10.57;;
80211;SDS011;70434;37.956;23.722;2023-07-08T00:56:09;12.35;;;10.32;;
80211;SDS011;70434;37.956;23.722;2023-07-08T00:58:47;15.35;;;10.52;;
80211;SDS011;70434;37.956;23.722;2023-07-08T01:01:18;13.95;;;10.85;;
80211;SDS011;70434;37.956;23.722;2023-07-08T01:06:39;16.38;;;11.38;;
80211;SDS011;70434;37.956;23.722;2023-07-08T01:09:10;14.25;;;11.20;;
80211;SDS011;70434;37.956;23.722;2023-07-08T01:11:38;16.20;;;11.68;;
80211;SDS011;70434;37.956;23.722;2023-07-08T01:14:06;15.65;;;11.25;;
80211;SDS011;70434;37.956;23.722;2023-07-08T01:16:34;13.00;;;11.20;;
80211;SDS011;70434;37.956;23.722;2023-07-08T01:19:01;15.30;;;11.35;;
80211;SDS011;70434;37.956;23.722;2023-07-08T01:21:36;14.38;;;10.88;;
80211;SDS011;70434;37.956;23.722;2023-07-08T01:24:04;13.80;;;10.98;;
80211;SDS011;70434;37.956;23.722;2023-07-08T01:26:34;14.20;;;10.90;;
80211;SDS011;70434;37.956;23.722;2023-07-08T01:29:03;14.02;;;11.32;;
80211;SDS011;70434;37.956;23.722;2023-07-08T01:31:30;17.15;;;10.68;;
80211;SDS011;70434;37.956;23.722;2023-07-08T01:33:56;14.95;;;11.32;;
80211;SDS011;70434;37.956;23.722;2023-07-08T01:36:21;16.33;;;10.98;;
80211;SDS011;70434;37.956;23.722;2023-07-08T01:38:47;14.57;;;11.20;;
80211;SDS011;70434;37.956;23.722;2023-07-08T01:41:14;15.13;;;11.50;;
80211;SDS011;70434;37.956;23.722;2023-07-08T01:43:41;13.82;;;11.10;;
80211;SDS011;70434;37.956;23.722;2023-07-08T01:46:23;16.27;;;11.27;;
80211;SDS011;70434;37.956;23.722;2023-07-08T01:48:52;13.90;;;11.05;;
80211;SDS011;70434;37.956;23.722;2023-07-08T01:51:21;13.00;;;10.68;;
80211;SDS011;70434;37.956;23.722;2023-07-08T01:53:48;13.48;;;10.70;;
80211;SDS011;70434;37.956;23.722;2023-07-08T01:56:14;15.23;;;10.70;;
80211;SDS011;70434;37.956;23.722;2023-07-08T01:58:41;13.63;;;10.45;;
80211;SDS011;70434;37.956;23.722;2023-07-08T02:01:07;14.45;;;10.23;;
80211;SDS011;70434;37.956;23.722;2023-07-08T02:03:33;16.13;;;11.40;;
80211;SDS011;70434;37.956;23.722;2023-07-08T02:05:59;14.55;;;10.73;;
80211;SDS011;70434;37.956;23.722;2023-07-08T02:08:25;15.43;;;10.35;;
80211;SDS011;70434;37.956;23.722;2023-07-08T02:10:52;13.80;;;10.23;;
80211;SDS011;70434;37.956;23.722;2023-07-08T02:13:20;13.43;;;9.45;;
80211;SDS011;70434;37.956;23.722;2023-07-08T02:15:47;13.18;;;10.50;;
80211;SDS011;70434;37.956;23.722;2023-07-08T02:18:13;13.55;;;10.10;;
80211;SDS011;70434;37.956;23.722;2023-07-08T02:20:39;14.35;;;10.23;;
80211;SDS011;70434;37.956;23.722;2023-07-08T02:23:05;12.32;;;9.63;;
80211;SDS011;70434;37.956;23.722;2023-07-08T02:25:30;15.30;;;10.07;;
80211;SDS011;70434;37.956;23.722;2023-07-08T02:27:56;13.02;;;9.60;;
80211;SDS011;70434;37.956;23.722;2023-07-08T02:30:25;13.48;;;10.38;;
80211;SDS011;70434;37.956;23.722;2023-07-08T02:32:52;12.13;;;9.27;;
80211;SDS011;70434;37.956;23.722;2023-07-08T02:35:25;13.10;;;8.82;;
80211;SDS011;70434;37.956;23.722;2023-07-08T02:37:53;12.30;;;9.48;;
80211;SDS011;70434;37.956;23.722;2023-07-08T02:40:20;12.05;;;9.55;;
80211;SDS011;70434;37.956;23.722;2023-07-08T02:42:46;12.50;;;8.85;;
80211;SDS011;70434;37.956;23.722;2023-07-08T02:45:12;12.48;;;10.25;;
80211;SDS011;70434;37.956;23.722;2023-07-08T02:47:38;13.40;;;9.45;;
80211;SDS011;70434;37.956;23.722;2023-07-08T02:50:05;12.10;;;8.70;;
80211;SDS011;70434;37.956;23.722;2023-07-08T02:52:32;13.70;;;9.30;;
80211;SDS011;70434;37.956;23.722;2023-07-08T02:54:57;13.65;;;9.60;;
80211;SDS011;70434;37.956;23.722;2023-07-08T02:57:23;13.00;;;9.63;;
80211;SDS011;70434;37.956;23.722;2023-07-08T02:59:49;12.48;;;9.18;;
80211;SDS011;70434;37.956;23.722;2023-07-08T03:02:14;13.75;;;9.32;;
80211;SDS011;70434;37.956;23.722;2023-07-08T03:04:40;13.55;;;9.30;;
80211;SDS011;70434;37.956;23.722;2023-07-08T03:07:07;11.05;;;9.02;;
80211;SDS011;70434;37.956;23.722;2023-07-08T03:09:36;13.63;;;9.38;;
80211;SDS011;70434;37.956;23.722;2023-07-08T03:12:04;11.80;;;10.23;;
80211;SDS011;70434;37.956;23.722;2023-07-08T03:14:30;14.57;;;10.07;;
80211;SDS011;70434;37.956;23.722;2023-07-08T03:16:56;11.52;;;9.95;;
80211;SDS011;70434;37.956;23.722;2023-07-08T03:19:22;13.85;;;10.20;;
80211;SDS011;70434;37.956;23.722;2023-07-08T03:21:48;14.90;;;9.68;;
80211;SDS011;70434;37.956;23.722;2023-07-08T03:24:13;10.65;;;8.35;;
80211;SDS011;70434;37.956;23.722;2023-07-08T03:26:43;13.10;;;9.63;;
80211;SDS011;70434;37.956;23.722;2023-07-08T03:29:16;14.40;;;10.38;;
80211;SDS011;70434;37.956;23.722;2023-07-08T03:31:44;11.98;;;9.30;;
80211;SDS011;70434;37.956;23.722;2023-07-08T03:34:11;13.30;;;9.55;;
80211;SDS011;70434;37.956;23.722;2023-07-08T03:36:47;17.73;;;12.40;;
80211;SDS011;70434;37.956;23.722;2023-07-08T03:39:18;11.70;;;10.23;;
80211;SDS011;70434;37.956;23.722;2023-07-08T03:41:45;13.68;;;10.43;;
80211;SDS011;70434;37.956;23.722;2023-07-08T03:44:12;13.43;;;10.32;;
80211;SDS011;70434;37.956;23.722;2023-07-08T03:46:38;14.27;;;9.63;;
80211;SDS011;70434;37.956;23.722;2023-07-08T03:49:04;13.38;;;9.68;;
80211;SDS011;70434;37.956;23.722;2023-07-08T03:51:32;12.93;;;9.65;;
80211;SDS011;70434;37.956;23.722;2023-07-08T03:54:01;12.98;;;10.75;;
80211;SDS011;70434;37.956;23.722;2023-07-08T03:56:27;14.30;;;10.77;;
80211;SDS011;70434;37.956;23.722;2023-07-08T03:58:53;13.23;;;9.38;;
80211;SDS011;70434;37.956;23.722;2023-07-08T04:01:20;14.15;;;10.77;;
80211;SDS011;70434;37.956;23.722;2023-07-08T04:03:49;15.00;;;10.65;;
80211;SDS011;70434;37.956;23.722;2023-07-08T04:06:16;16.38;;;11.95;;
80211;SDS011;70434;37.956;23.722;2023-07-08T04:08:42;18.08;;;14.23;;
80211;SDS011;70434;37.956;23.722;2023-07-08T04:11:09;20.48;;;12.88;;
80211;SDS011;70434;37.956;23.722;2023-07-08T04:13:41;13.50;;;10.77;;
80211;SDS011;70434;37.956;23.722;2023-07-08T04:16:06;13.55;;;10.32;;
80211;SDS011;70434;37.956;23.722;2023-07-08T04:18:33;14.23;;;11.10;;
80211;SDS011;70434;37.956;23.722;2023-07-08T04:20:59;14.38;;;11.73;;
80211;SDS011;70434;37.956;23.722;2023-07-08T04:23:25;12.13;;;10.82;;
80211;SDS011;70434;37.956;23.722;2023-07-08T04:25:52;13.57;;;10.23;;
80211;SDS011;70434;37.956;23.722;2023-07-08T04:28:20;14.75;;;10.27;;
80211;SDS011;70434;37.956;23.722;2023-07-08T04:30:46;13.80;;;10.52;;
80211;SDS011;70434;37.956;23.722;2023-07-08T04:33:13;15.52;;;10.57;;
80211;SDS011;70434;37.956;23.722;2023-07-08T04:35:40;13.13;;;10.35;;
80211;SDS011;70434;37.956;23.722;2023-07-08T04:38:16;16.77;;;9.40;;
80211;SDS011;70434;37.956;23.722;2023-07-08T04:40:44;12.40;;;10.15;;
80211;SDS011;70434;37.956;23.722;2023-07-08T04:43:10;13.80;;;10.80;;
80211;SDS011;70434;37.956;23.722;2023-07-08T04:45:37;17.02;;;12.18;;
80211;SDS011;70434;37.956;23.722;2023-07-08T04:48:04;15.80;;;12.35;;
80211;SDS011;70434;37.956;23.722;2023-07-08T04:50:41;14.45;;;12.10;;
80211;SDS011;70434;37.956;23.722;2023-07-08T04:53:08;15.68;;;11.65;;
80211;SDS011;70434;37.956;23.722;2023-07-08T04:55:35;13.18;;;11.07;;
80211;SDS011;70434;37.956;23.722;2023-07-08T04:58:01;12.98;;;11.23;;
80211;SDS011;70434;37.956;23.722;2023-07-08T05:00:27;14.35;;;11.88;;
80211;SDS011;70434;37.956;23.722;2023-07-08T05:02:53;15.70;;;10.32;;
80211;SDS011;70434;37.956;23.722;2023-07-08T05:05:19;15.93;;;11.52;;
80211;SDS011;70434;37.956;23.722;2023-07-08T05:07:45;14.52;;;11.60;;
80211;SDS011;70434;37.956;23.722;2023-07-08T05:10:11;16.38;;;13.43;;
80211;SDS011;70434;37.956;23.722;2023-07-08T05:12:37;20.40;;;16.20;;
80211;SDS011;70434;37.956;23.722;2023-07-08T05:15:03;15.82;;;11.00;;
80211;SDS011;70434;37.956;23.722;2023-07-08T05:17:29;13.60;;;10.35;;
80211;SDS011;70434;37.956;23.722;2023-07-08T05:19:55;14.98;;;10.70;;
80211;SDS011;70434;37.956;23.722;2023-07-08T05:22:23;15.95;;;10.18;;
80211;SDS011;70434;37.956;23.722;2023-07-08T05:24:51;13.68;;;10.65;;
80211;SDS011;70434;37.956;23.722;2023-07-08T05:27:20;13.40;;;11.10;;
80211;SDS011;70434;37.956;23.722;2023-07-08T05:29:49;13.10;;;10.88;;
80211;SDS011;70434;37.956;23.722;2023-07-08T05:32:16;13.52;;;9.52;;
80211;SDS011;70434;37.956;23.722;2023-07-08T05:34:42;13.27;;;10.55;;
80211;SDS011;70434;37.956;23.722;2023-07-08T05:37:08;12.77;;;10.50;;
80211;SDS011;70434;37.956;23.722;2023-07-08T05:39:35;15.73;;;11.20;;
80211;SDS011;70434;37.956;23.722;2023-07-08T05:42:01;14.50;;;10.07;;
80211;SDS011;70434;37.956;23.722;2023-07-08T05:44:27;13.43;;;9.55;;
80211;SDS011;70434;37.956;23.722;2023-07-08T05:46:53;12.75;;;10.23;;
80211;SDS011;70434;37.956;23.722;2023-07-08T05:49:19;14.60;;;11.20;;
80211;SDS011;70434;37.956;23.722;2023-07-08T05:51:44;11.70;;;10.10;;
80211;SDS011;70434;37.956;23.722;2023-07-08T05:54:10;14.85;;;10.65;;
80211;SDS011;70434;37.956;23.722;2023-07-08T05:56:36;18.30;;;11.80;;
80211;SDS011;70434;37.956;23.722;2023-07-08T05:59:02;17.25;;;12.75;;
80211;SDS011;70434;37.956;23.722;2023-07-08T06:01:28;17.33;;;10.48;;
80211;SDS011;70434;37.956;23.722;2023-07-08T06:03:55;15.25;;;9.93;;
80211;SDS011;70434;37.956;23.722;2023-07-08T06:06:24;16.15;;;11.10;;
80211;SDS011;70434;37.956;23.722;2023-07-08T06:08:50;14.65;;;9.82;;
80211;SDS011;70434;37.956;23.722;2023-07-08T06:11:16;16.98;;;10.20;;
80211;SDS011;70434;37.956;23.722;2023-07-08T06:13:42;14.43;;;10.30;;
80211;SDS011;70434;37.956;23.722;2023-07-08T06:16:08;13.70;;;10.00;;
80211;SDS011;70434;37.956;23.722;2023-07-08T06:18:34;15.15;;;10.30;;
80211;SDS011;70434;37.956;23.722;2023-07-08T06:21:00;16.38;;;11.00;;
80211;SDS011;70434;37.956;23.722;2023-07-08T06:23:26;16.30;;;10.88;;
80211;SDS011;70434;37.956;23.722;2023-07-08T06:25:53;18.67;;;11.27;;
80211;SDS011;70434;37.956;23.722;2023-07-08T06:28:19;14.57;;;10.82;;
80211;SDS011;70434;37.956;23.722;2023-07-08T06:30:45;15.20;;;9.70;;
80211;SDS011;70434;37.956;23.722;2023-07-08T06:33:11;17.15;;;10.13;;
80211;SDS011;70434;37.956;23.722;2023-07-08T06:35:38;18.65;;;10.77;;
80211;SDS011;70434;37.956;23.722;2023-07-08T06:38:04;12.32;;;9.75;;
80211;SDS011;70434;37.956;23.722;2023-07-08T06:40:31;16.42;;;11.32;;
80211;SDS011;70434;37.956;23.722;2023-07-08T06:42:57;20.27;;;13.70;;
80211;SDS011;70434;37.956;23.722;2023-07-08T06:45:23;41.90;;;27.50;;
80211;SDS011;70434;37.956;23.722;2023-07-08T06:47:49;20.50;;;13.18;;
80211;SDS011;70434;37.956;23.722;2023-07-08T06:50:15;18.23;;;10.68;;
80211;SDS011;70434;37.956;23.722;2023-07-08T06:52:40;19.23;;;11.50;;
80211;SDS011;70434;37.956;23.722;2023-07-08T06:55:07;16.58;;;11.27;;
80211;SDS011;70434;37.956;23.722;2023-07-08T06:57:34;15.27;;;10.68;;
80211;SDS011;70434;37.956;23.722;2023-07-08T07:00:00;13.75;;;9.85;;
80211;SDS011;70434;37.956;23.722;2023-07-08T07:02:26;15.23;;;10.88;;
80211;SDS011;70434;37.956;23.722;2023-07-08T07:04:52;14.10;;;9.82;;
80211;SDS011;70434;37.956;23.722;2023-07-08T07:07:20;17.88;;;10.20;;
80211;SDS011;70434;37.956;23.722;2023-07-08T07:09:46;14.30;;;9.68;;
80211;SDS011;70434;37.956;23.722;2023-07-08T07:12:11;18.92;;;10.00;;
80211;SDS011;70434;37.956;23.722;2023-07-08T07:14:37;18.17;;;10.02;;
80211;SDS011;70434;37.956;23.722;2023-07-08T07:17:03;13.25;;;9.43;;
80211;SDS011;70434;37.956;23.722;2023-07-08T07:19:29;16.38;;;9.35;;
80211;SDS011;70434;37.956;23.722;2023-07-08T07:21:55;15.50;;;8.68;;
80211;SDS011;70434;37.956;23.722;2023-07-08T07:24:20;12.50;;;8.52;;
80211;SDS011;70434;37.956;23.722;2023-07-08T07:26:46;16.95;;;8.70;;
80211;SDS011;70434;37.956;23.722;2023-07-08T07:29:13;11.02;;;8.00;;
80211;SDS011;70434;37.956;23.722;2023-07-08T07:31:41;16.85;;;7.88;;
80211;SDS011;70434;37.956;23.722;2023-07-08T07:34:07;11.35;;;7.50;;
80211;SDS011;70434;37.956;23.722;2023-07-08T07:36:33;11.30;;;7.55;;
80211;SDS011;70434;37.956;23.722;2023-07-08T07:38:59;13.75;;;7.43;;
80211;SDS011;70434;37.956;23.722;2023-07-08T07:41:25;12.63;;;7.85;;
80211;SDS011;70434;37.956;23.722;2023-07-08T07:43:51;10.88;;;7.50;;
80211;SDS011;70434;37.956;23.722;2023-07-08T07:46:16;14.00;;;7.53;;
80211;SDS011;70434;37.956;23.722;2023-07-08T07:48:43;10.65;;;7.97;;
80211;SDS011;70434;37.956;23.722;2023-07-08T07:51:09;12.88;;;7.97;;
80211;SDS011;70434;37.956;23.722;2023-07-08T07:53:35;11.55;;;7.28;;
80211;SDS011;70434;37.956;23.722;2023-07-08T07:56:02;13.57;;;7.55;;
80211;SDS011;70434;37.956;23.722;2023-07-08T07:58:29;15.60;;;8.30;;
80211;SDS011;70434;37.956;23.722;2023-07-08T08:00:55;19.02;;;7.97;;
80211;SDS011;70434;37.956;23.722;2023-07-08T08:03:21;9.73;;;7.15;;
80211;SDS011;70434;37.956;23.722;2023-07-08T08:05:47;11.27;;;7.40;;
80211;SDS011;70434;37.956;23.722;2023-07-08T08:08:13;15.32;;;6.90;;
80211;SDS011;70434;37.956;23.722;2023-07-08T08:10:40;10.18;;;7.53;;
80211;SDS011;70434;37.956;23.722;2023-07-08T08:13:06;14.38;;;8.35;;
80211;SDS011;70434;37.956;23.722;2023-07-08T08:15:33;12.57;;;7.88;;
80211;SDS011;70434;37.956;23.722;2023-07-08T08:17:59;10.00;;;7.50;;
80211;SDS011;70434;37.956;23.722;2023-07-08T08:20:25;11.35;;;7.43;;
80211;SDS011;70434;37.956;23.722;2023-07-08T08:22:51;10.63;;;7.35;;
80211;SDS011;70434;37.956;23.722;2023-07-08T08:25:18;10.32;;;7.22;;
80211;SDS011;70434;37.956;23.722;2023-07-08T08:27:45;11.55;;;7.43;;
80211;SDS011;70434;37.956;23.722;2023-07-08T08:30:11;12.02;;;7.60;;
80211;SDS011;70434;37.956;23.722;2023-07-08T08:32:37;14.05;;;7.55;;
80211;SDS011;70434;37.956;23.722;2023-07-08T08:35:03;8.90;;;6.97;;
80211;SDS011;70434;37.956;23.722;2023-07-08T08:37:29;11.88;;;7.68;;
80211;SDS011;70434;37.956;23.722;2023-07-08T08:39:55;12.27;;;7.35;;
80211;SDS011;70434;37.956;23.722;2023-07-08T08:42:29;8.90;;;6.78;;
80211;SDS011;70434;37.956;23.722;2023-07-08T08:45:04;11.75;;;6.88;;
80211;SDS011;70434;37.956;23.722;2023-07-08T08:47:38;10.68;;;6.90;;
80211;SDS011;70434;37.956;23.722;2023-07-08T08:53:00;11.03;;;7.70;;
80211;SDS011;70434;37.956;23.722;2023-07-08T08:55:29;10.27;;;7.97;;
80211;SDS011;70434;37.956;23.722;2023-07-08T09:00:56;11.43;;;7.20;;
80211;SDS011;70434;37.956;23.722;2023-07-08T09:06:13;10.25;;;8.30;;
80211;SDS011;70434;37.956;23.722;2023-07-08T09:08:44;11.68;;;8.38;;
80211;SDS011;70434;37.956;23.722;2023-07-08T09:14:03;10.77;;;7.50;;
80211;SDS011;70434;37.956;23.722;2023-07-08T09:16:39;12.95;;;8.15;;
80211;SDS011;70434;37.956;23.722;2023-07-08T09:19:14;17.63;;;8.63;;
80211;SDS011;70434;37.956;23.722;2023-07-08T09:27:06;13.82;;;8.52;;
80211;SDS011;70434;37.956;23.722;2023-07-08T09:29:32;12.70;;;9.18;;
80211;SDS011;70434;37.956;23.722;2023-07-08T09:31:58;11.73;;;8.23;;
80211;SDS011;70434;37.956;23.722;2023-07-08T09:34:43;10.50;;;8.35;;
80211;SDS011;70434;37.956;23.722;2023-07-08T09:37:44;12.77;;;9.05;;
80211;SDS011;70434;37.956;23.722;2023-07-08T09:40:04;15.10;;;9.90;;
80211;SDS011;70434;37.956;23.722;2023-07-08T09:42:58;12.07;;;9.20;;
80211;SDS011;70434;37.956;23.722;2023-07-08T09:45:29;12.77;;;10.57;;
80211;SDS011;70434;37.956;23.722;2023-07-08T09:48:04;12.90;;;9.70;;
80211;SDS011;70434;37.956;23.722;2023-07-08T09:50:43;13.40;;;9.57;;
80211;SDS011;70434;37.956;23.722;2023-07-08T09:53:12;14.27;;;9.00;;
80211;SDS011;70434;37.956;23.722;2023-07-08T09:55:39;12.70;;;9.02;;
80211;SDS011;70434;37.956;23.722;2023-07-08T09:58:05;15.23;;;9.57;;
80211;SDS011;70434;37.956;23.722;2023-07-08T10:00:38;14.35;;;9.02;;
80211;SDS011;70434;37.956;23.722;2023-07-08T10:03:11;17.27;;;9.77;;
80211;SDS011;70434;37.956;23.722;2023-07-08T10:05:45;13.00;;;9.05;;
80211;SDS011;70434;37.956;23.722;2023-07-08T10:08:17;16.15;;;9.43;;
80211;SDS011;70434;37.956;23.722;2023-07-08T10:10:48;12.88;;;9.00;;
80211;SDS011;70434;37.956;23.722;2023-07-08T10:13:24;17.13;;;9.18;;
80211;SDS011;70434;37.956;23.722;2023-07-08T10:18:41;14.85;;;9.45;;
80211;SDS011;70434;37.956;23.722;2023-07-08T10:26:37;14.35;;;9.77;;
80211;SDS011;70434;37.956;23.722;2023-07-08T10:37:47;12.70;;;9.27;;
80211;SDS011;70434;37.956;23.722;2023-07-08T10:51:22;11.70;;;8.98;;
80211;SDS011;70434;37.956;23.722;2023-07-08T10:57:17;12.77;;;9.10;;
80211;SDS011;70434;37.956;23.722;2023-07-08T11:05:37;18.77;;;9.90;;
80211;SDS011;70434;37.956;23.722;2023-07-08T11:13:19;10.90;;;9.20;;
80211;SDS011;70434;37.956;23.722;2023-07-08T11:15:50;15.20;;;9.60;;
80211;SDS011;70434;37.956;23.722;2023-07-08T11:18:30;12.10;;;8.18;;
80211;SDS011;70434;37.956;23.722;2023-07-08T11:21:09;14.68;;;8.68;;
80211;SDS011;70434;37.956;23.722;2023-07-08T11:26:30;12.13;;;8.82;;
80211;SDS011;70434;37.956;23.722;2023-07-08T11:29:03;11.73;;;9.52;;
80211;SDS011;70434;37.956;23.722;2023-07-08T11:31:34;11.40;;;8.93;;
80211;SDS011;70434;37.956;23.722;2023-07-08T11:34:00;11.95;;;8.55;;
80211;SDS011;70434;37.956;23.722;2023-07-08T11:36:27;10.27;;;8.60;;
80211;SDS011;70434;37.956;23.722;2023-07-08T11:38:55;15.68;;;9.43;;
80211;SDS011;70434;37.956;23.722;2023-07-08T11:41:25;11.10;;;7.88;;
80211;SDS011;70434;37.956;23.722;2023-07-08T11:43:56;13.45;;;8.35;;
80211;SDS011;70434;37.956;23.722;2023-07-08T11:46:27;11.70;;;7.82;;
80211;SDS011;70434;37.956;23.722;2023-07-08T11:49:05;10.48;;;7.72;;
80211;SDS011;70434;37.956;23.722;2023-07-08T11:51:37;15.30;;;8.15;;
80211;SDS011;70434;37.956;23.722;2023-07-08T11:54:12;11.38;;;8.52;;
80211;SDS011;70434;37.956;23.722;2023-07-08T11:56:59;14.43;;;8.32;;
80211;SDS011;70434;37.956;23.722;2023-07-08T11:59:30;10.93;;;8.30;;
80211;SDS011;70434;37.956;23.722;2023-07-08T12:02:15;9.63;;;8.25;;
80211;SDS011;70434;37.956;23.722;2023-07-08T12:07:22;10.93;;;7.47;;
80211;SDS011;70434;37.956;23.722;2023-07-08T12:10:08;14.32;;;8.73;;
80211;SDS011;70434;37.956;23.722;2023-07-08T12:12:43;11.85;;;8.15;;
80211;SDS011;70434;37.956;23.722;2023-07-08T12:15:12;12.23;;;7.82;;
80211;SDS011;70434;37.956;23.722;2023-07-08T12:17:44;14.23;;;10.25;;
80211;SDS011;70434;37.956;23.722;2023-07-08T12:20:32;12.57;;;9.02;;
80211;SDS011;70434;37.956;23.722;2023-07-08T12:22:58;13.77;;;8.10;;
80211;SDS011;70434;37.956;23.722;2023-07-08T12:25:32;9.55;;;7.47;;
80211;SDS011;70434;37.956;23.722;2023-07-08T12:28:01;10.57;;;7.47;;
80211;SDS011;70434;37.956;23.722;2023-07-08T12:30:28;11.98;;;7.68;;
80211;SDS011;70434;37.956;23.722;2023-07-08T12:32:55;12.65;;;7.20;;
80211;SDS011;70434;37.956;23.722;2023-07-08T12:37:58;12.23;;;7.68;;
80211;SDS011;70434;37.956;23.722;2023-07-08T12:40:27;14.27;;;8.02;;
80211;SDS011;70434;37.956;23.722;2023-07-08T12:42:55;11.98;;;9.23;;
80211;SDS011;70434;37.956;23.722;2023-07-08T12:45:22;9.95;;;7.68;;
80211;SDS011;70434;37.956;23.722;2023-07-08T12:47:50;10.57;;;8.68;;
80211;SDS011;70434;37.956;23.722;2023-07-08T12:50:16;11.20;;;8.43;;
80211;SDS011;70434;37.956;23.722;2023-07-08T12:52:43;13.05;;;10.23;;
80211;SDS011;70434;37.956;23.722;2023-07-08T12:55:10;14.07;;;11.75;;
80211;SDS011;70434;37.956;23.722;2023-07-08T12:57:38;10.95;;;8.98;;
80211;SDS011;70434;37.956;23.722;2023-07-08T13:00:10;14.27;;;9.85;;
80211;SDS011;70434;37.956;23.722;2023-07-08T13:02:39;11.38;;;8.73;;
80211;SDS011;70434;37.956;23.722;2023-07-08T13:05:09;11.27;;;9.05;;
80211;SDS011;70434;37.956;23.722;2023-07-08T13:07:36;10.77;;;8.27;;
80211;SDS011;70434;37.956;23.722;2023-07-08T13:10:06;12.95;;;8.32;;
80211;SDS011;70434;37.956;23.722;2023-07-08T13:12:40;12.23;;;7.30;;
80211;SDS011;70434;37.956;23.722;2023-07-08T13:15:10;10.43;;;8.05;;
80211;SDS011;70434;37.956;23.722;2023-07-08T13:17:42;16.50;;;10.43;;
80211;SDS011;70434;37.956;23.722;2023-07-08T13:20:17;10.73;;;8.07;;
80211;SDS011;70434;37.956;23.722;2023-07-08T13:22:46;10.20;;;7.38;;
80211;SDS011;70434;37.956;23.722;2023-07-08T13:25:27;12.98;;;7.60;;
80211;SDS011;70434;37.956;23.722;2023-07-08T13:27:55;12.05;;;8.27;;
80211;SDS011;70434;37.956;23.722;2023-07-08T13:30:23;15.52;;;7.78;;
80211;SDS011;70434;37.956;23.722;2023-07-08T13:32:52;10.48;;;7.90;;
80211;SDS011;70434;37.956;23.722;2023-07-08T13:35:27;9.10;;;6.80;;
80211;SDS011;70434;37.956;23.722;2023-07-08T13:38:03;10.52;;;7.90;;
80211;SDS011;70434;37.956;23.722;2023-07-08T13:40:29;11.02;;;7.50;;
80211;SDS011;70434;37.956;23.722;2023-07-08T13:42:56;11.73;;;7.78;;
80211;SDS011;70434;37.956;23.722;2023-07-08T13:45:24;10.27;;;7.45;;
80211;SDS011;70434;37.956;23.722;2023-07-08T13:48:02;8.07;;;6.60;;
80211;SDS011;70434;37.956;23.722;2023-07-08T13:50:50;12.82;;;7.68;;
80211;SDS011;70434;37.956;23.722;2023-07-08T13:53:25;10.32;;;6.43;;
80211;SDS011;70434;37.956;23.722;2023-07-08T13:55:57;9.80;;;7.30;;
80211;SDS011;70434;37.956;23.722;2023-07-08T13:58:25;13.38;;;7.18;;
80211;SDS011;70434;37.956;23.722;2023-07-08T14:00:52;13.80;;;7.20;;
80211;SDS011;70434;37.956;23.722;2023-07-08T14:03:18;9.68;;;6.93;;
80211;SDS011;70434;37.956;23.722;2023-07-08T14:05:45;10.05;;;6.68;;
80211;SDS011;70434;37.956;23.722;2023-07-08T14:08:14;10.00;;;6.65;;
80211;SDS011;70434;37.956;23.722;2023-07-08T14:10:43;11.98;;;7.65;;
80211;SDS011;70434;37.956;23.722;2023-07-08T14:13:10;10.02;;;6.57;;
80211;SDS011;70434;37.956;23.722;2023-07-08T14:15:37;12.55;;;7.05;;
80211;SDS011;70434;37.956;23.722;2023-07-08T14:18:03;11.52;;;7.05;;
80211;SDS011;70434;37.956;23.722;2023-07-08T14:20:30;9.85;;;7.15;;
80211;SDS011;70434;37.956;23.722;2023-07-08T14:22:57;8.77;;;6.63;;
80211;SDS011;70434;37.956;23.722;2023-07-08T14:25:23;11.48;;;6.75;;
80211;SDS011;70434;37.956;23.722;2023-07-08T14:27:51;8.82;;;6.90;;
80211;SDS011;70434;37.956;23.722;2023-07-08T14:30:17;11.93;;;6.57;;
80211;SDS011;70434;37.956;23.722;2023-07-08T14:32:43;10.10;;;5.97;;
80211;SDS011;70434;37.956;23.722;2023-07-08T14:37:48;9.65;;;6.72;;
80211;SDS011;70434;37.956;23.722;2023-07-08T14:42:39;10.40;;;5.97;;
80211;SDS011;70434;37.956;23.722;2023-07-08T14:45:07;7.40;;;5.78;;
80211;SDS011;70434;37.956;23.722;2023-07-08T14:47:33;7.28;;;5.75;;
80211;SDS011;70434;37.956;23.722;2023-07-08T14:49:58;10.98;;;6.18;;
80211;SDS011;70434;37.956;23.722;2023-07-08T14:52:25;9.05;;;5.72;;
80211;SDS011;70434;37.956;23.722;2023-07-08T14:54:50;13.63;;;6.50;;
80211;SDS011;70434;37.956;23.722;2023-07-08T14:57:16;8.25;;;5.90;;
80211;SDS011;70434;37.956;23.722;2023-07-08T14:59:42;10.10;;;5.88;;
80211;SDS011;70434;37.956;23.722;2023-07-08T15:02:15;10.43;;;6.25;;
80211;SDS011;70434;37.956;23.722;2023-07-08T15:04:45;12.95;;;8.88;;
80211;SDS011;70434;37.956;23.722;2023-07-08T15:07:11;37.47;;;33.47;;
80211;SDS011;70434;37.956;23.722;2023-07-08T15:09:37;29.25;;;23.60;;
80211;SDS011;70434;37.956;23.722;2023-07-08T15:12:03;11.55;;;7.30;;
80211;SDS011;70434;37.956;23.722;2023-07-08T15:14:29;13.43;;;8.98;;
80211;SDS011;70434;37.956;23.722;2023-07-08T15:16:55;13.50;;;9.20;;
80211;SDS011;70434;37.956;23.722;2023-07-08T15:19:21;16.83;;;9.38;;
80211;SDS011;70434;37.956;23.722;2023-07-08T15:21:47;8.48;;;5.70;;
80211;SDS011;70434;37.956;23.722;2023-07-08T15:24:13;10.43;;;5.65;;
80211;SDS011;70434;37.956;23.722;2023-07-08T15:26:46;11.73;;;5.43;;
80211;SDS011;70434;37.956;23.722;2023-07-08T15:29:17;10.02;;;5.00;;
80211;SDS011;70434;37.956;23.722;2023-07-08T15:31:47;11.50;;;5.65;;
80211;SDS011;70434;37.956;23.722;2023-07-08T15:34:14;8.05;;;5.20;;
80211;SDS011;70434;37.956;23.722;2023-07-08T15:36:41;9.52;;;5.30;;
80211;SDS011;70434;37.956;23.722;2023-07-08T15:39:07;8.43;;;5.40;;
80211;SDS011;70434;37.956;23.722;2023-07-08T15:41:34;11.20;;;6.53;;
80211;SDS011;70434;37.956;23.722;2023-07-08T15:44:00;7.40;;;5.95;;